Whitney, Texas
Current Conditions -  °F | °C
As of 10:15 AM on Monday 24 Nov 2014 (Local Time) from KINJ Reporting Station
Clear Clear  
Wind Chill: 51°   Ceiling: Unl
Heat Index: 51°   Visibility: 10mi
Dew Point: 34°   Wind: 7mph
Humidity: 52%   Direction: 310°NW
Pressure: 30.09"   Gusts: NA
Location:  31.95°N, 97.32°W
Report Text: KINJ 241615Z AUTO 31006KT 10SM CLR 11/01 A3009 RMK AO2 T01060011
Loading
Personal Weather Stations






























Interactive Weather Map New forecast layout! Learn more

10-Day Weather Forecast

Advertisements
Track Severe Weather on mobile